ARG1709 SAAR-SABE
Flight info
| Callsign | ARG1709 |
|---|---|
| Flight time | N/A |
| Altitude | 23000 |
| Route | VASAL1G VASAL W20 MULTA W24 SNT SNT9R |
| Aircraft | B738/M-MSDFGHILRVWS/LB1 |
Departure
| Time | 2026-04-26 21:06 |
|---|---|
| Airport | Rosario Islas Malvinas International Airport (SAAR) |
Arrival
| Time | N/A |
|---|---|
| Airport | Aeroparque Jorge Newbery (SABE) |
| Time | Latitude | Longitude | Altitude | Speed | Heading |
|---|---|---|---|---|---|
| 2026-04-26 20:38 | -32.91639 | -60.78090 | 93 ft | 0 kts | 110° |
| 2026-04-26 20:56 | -32.91637 | -60.78095 | 93 ft | 2 kts | 109° |
| 2026-04-26 20:56 | -32.91633 | -60.78116 | 93 ft | 3 kts | 90° |
| 2026-04-26 20:56 | -32.91636 | -60.78138 | 93 ft | 3 kts | 57° |
| 2026-04-26 20:56 | -32.91646 | -60.78151 | 93 ft | 1 kts | 22° |
| 2026-04-26 20:57 | -32.91649 | -60.78152 | 93 ft | 0 kts | 21° |
| 2026-04-26 20:59 | -32.91647 | -60.78151 | 93 ft | 2 kts | 21° |
| 2026-04-26 20:59 | -32.91598 | -60.78128 | 93 ft | 9 kts | 21° |
| 2026-04-26 20:59 | -32.91539 | -60.78102 | 93 ft | 9 kts | 17° |
| 2026-04-26 21:00 | -32.91480 | -60.78110 | 93 ft | 11 kts | 324° |
| 2026-04-26 21:00 | -32.91404 | -60.78179 | 93 ft | 14 kts | 322° |
| 2026-04-26 21:00 | -32.91332 | -60.78247 | 93 ft | 13 kts | 321° |
| 2026-04-26 21:00 | -32.91263 | -60.78313 | 93 ft | 12 kts | 321° |
| 2026-04-26 21:01 | -32.91196 | -60.78375 | 93 ft | 12 kts | 321° |
| 2026-04-26 21:01 | -32.91126 | -60.78439 | 93 ft | 16 kts | 323° |
| 2026-04-26 21:01 | -32.91032 | -60.78506 | 93 ft | 15 kts | 336° |
| 2026-04-26 21:01 | -32.90934 | -60.78546 | 93 ft | 15 kts | 352° |
| 2026-04-26 21:02 | -32.90837 | -60.78562 | 93 ft | 14 kts | 352° |
| 2026-04-26 21:02 | -32.90698 | -60.78546 | 93 ft | 29 kts | 11° |
| 2026-04-26 21:02 | -32.90459 | -60.78492 | 93 ft | 36 kts | 11° |
| 2026-04-26 21:02 | -32.90225 | -60.78438 | 93 ft | 33 kts | 11° |
| 2026-04-26 21:03 | -32.90007 | -60.78388 | 93 ft | 31 kts | 11° |
| 2026-04-26 21:03 | -32.89805 | -60.78342 | 93 ft | 28 kts | 11° |
| 2026-04-26 21:03 | -32.89621 | -60.78299 | 93 ft | 26 kts | 11° |
| 2026-04-26 21:03 | -32.89454 | -60.78261 | 93 ft | 23 kts | 11° |
| 2026-04-26 21:04 | -32.89299 | -60.78225 | 93 ft | 22 kts | 11° |
| 2026-04-26 21:04 | -32.89152 | -60.78184 | 93 ft | 21 kts | 33° |
| 2026-04-26 21:04 | -32.89059 | -60.78123 | 93 ft | 9 kts | 338° |
| 2026-04-26 21:04 | -32.89071 | -60.78174 | 93 ft | 4 kts | 193° |
| 2026-04-26 21:05 | -32.89074 | -60.78174 | 93 ft | 0 kts | 190° |
| 2026-04-26 21:05 | -32.89128 | -60.78187 | 93 ft | 24 kts | 191° |
| 2026-04-26 21:05 | -32.89500 | -60.78272 | 93 ft | 84 kts | 191° |
| 2026-04-26 21:06 | -32.90259 | -60.78445 | 98 ft | 135 kts | 191° |
| 2026-04-26 21:06 | -32.91256 | -60.78678 | 451 ft | 151 kts | 192° |
| 2026-04-26 21:06 | -32.92269 | -60.78918 | 1219 ft | 147 kts | 196° |
| 2026-04-26 21:06 | -32.93251 | -60.79158 | 1975 ft | 141 kts | 198° |
| 2026-04-26 21:07 | -32.94258 | -60.79379 | 2379 ft | 153 kts | 197° |
| 2026-04-26 21:07 | -32.95362 | -60.79620 | 2733 ft | 171 kts | 197° |
| 2026-04-26 21:07 | -32.96601 | -60.79898 | 2980 ft | 192 kts | 197° |
| 2026-04-26 21:07 | -32.97924 | -60.80195 | 3577 ft | 197 kts | 200° |
| 2026-04-26 21:08 | -32.99293 | -60.80504 | 4324 ft | 199 kts | 203° |
| 2026-04-26 21:08 | -33.00689 | -60.80794 | 4952 ft | 210 kts | 200° |
| 2026-04-26 21:08 | -33.02200 | -60.80581 | 5653 ft | 237 kts | 176° |
| 2026-04-26 21:08 | -33.03682 | -60.79519 | 6387 ft | 261 kts | 154° |
| 2026-04-26 21:09 | -33.05024 | -60.78010 | 7086 ft | 267 kts | 150° |
| 2026-04-26 21:09 | -33.06381 | -60.76499 | 7776 ft | 266 kts | 153° |
| 2026-04-26 21:09 | -33.07761 | -60.75012 | 8468 ft | 267 kts | 153° |
| 2026-04-26 21:09 | -33.09133 | -60.73531 | 9147 ft | 268 kts | 154° |
| 2026-04-26 21:10 | -33.10549 | -60.72059 | 9700 ft | 274 kts | 156° |
| 2026-04-26 21:10 | -33.12059 | -60.70542 | 9994 ft | 292 kts | 155° |
| 2026-04-26 21:10 | -33.13644 | -60.68936 | 10461 ft | 303 kts | 154° |
| 2026-04-26 21:10 | -33.15282 | -60.67267 | 10797 ft | 320 kts | 153° |
| 2026-04-26 21:11 | -33.17023 | -60.65486 | 11047 ft | 339 kts | 152° |
| 2026-04-26 21:11 | -33.18865 | -60.63594 | 11306 ft | 357 kts | 151° |
| 2026-04-26 21:11 | -33.20768 | -60.61637 | 11757 ft | 366 kts | 151° |
| 2026-04-26 21:11 | -33.22718 | -60.59630 | 12349 ft | 372 kts | 151° |
| 2026-04-26 21:12 | -33.24689 | -60.57598 | 12956 ft | 377 kts | 150° |
| 2026-04-26 21:12 | -33.26683 | -60.55543 | 13564 ft | 382 kts | 150° |
| 2026-04-26 21:12 | -33.28704 | -60.53458 | 14176 ft | 387 kts | 150° |
| 2026-04-26 21:12 | -33.30761 | -60.51337 | 14813 ft | 391 kts | 150° |
| 2026-04-26 21:13 | -33.32836 | -60.49212 | 15435 ft | 394 kts | 151° |
| 2026-04-26 21:13 | -33.35021 | -60.47271 | 16040 ft | 390 kts | 158° |
| 2026-04-26 21:13 | -33.37333 | -60.45577 | 16630 ft | 389 kts | 161° |
| 2026-04-26 21:13 | -33.39669 | -60.44000 | 17196 ft | 393 kts | 162° |
| 2026-04-26 21:14 | -33.42085 | -60.42357 | 17766 ft | 398 kts | 161° |
| 2026-04-26 21:14 | -33.44506 | -60.40692 | 18300 ft | 403 kts | 161° |
| 2026-04-26 21:14 | -33.46946 | -60.39000 | 18852 ft | 407 kts | 161° |
| 2026-04-26 21:14 | -33.49397 | -60.37292 | 19405 ft | 410 kts | 161° |
| 2026-04-26 21:15 | -33.51875 | -60.35561 | 19942 ft | 414 kts | 161° |
| 2026-04-26 21:15 | -33.54371 | -60.33813 | 20468 ft | 417 kts | 161° |
| 2026-04-26 21:15 | -33.56889 | -60.32056 | 20975 ft | 420 kts | 161° |
| 2026-04-26 21:15 | -33.59428 | -60.30301 | 21475 ft | 423 kts | 161° |
| 2026-04-26 21:16 | -33.61978 | -60.28522 | 22083 ft | 422 kts | 161° |
| 2026-04-26 21:16 | -33.64507 | -60.26748 | 22627 ft | 423 kts | 161° |
| 2026-04-26 21:16 | -33.67020 | -60.24981 | 22906 ft | 425 kts | 161° |
| 2026-04-26 21:16 | -33.69586 | -60.23174 | 22956 ft | 432 kts | 161° |
| 2026-04-26 21:17 | -33.72221 | -60.21316 | 22965 ft | 444 kts | 160° |
| 2026-04-26 21:17 | -33.74906 | -60.19422 | 22966 ft | 454 kts | 160° |
| 2026-04-26 21:17 | -33.77665 | -60.17475 | 22965 ft | 464 kts | 160° |
| 2026-04-26 21:17 | -33.80472 | -60.15457 | 22960 ft | 477 kts | 157° |
| 2026-04-26 21:18 | -33.83190 | -60.13030 | 22963 ft | 495 kts | 149° |
| 2026-04-26 21:18 | -33.85715 | -60.10117 | 22964 ft | 511 kts | 141° |
| 2026-04-26 21:18 | -33.87958 | -60.06724 | 22966 ft | 526 kts | 132° |
| 2026-04-26 21:18 | -33.89894 | -60.03033 | 22963 ft | 513 kts | 128° |
| 2026-04-26 21:19 | -33.91715 | -59.99446 | 22959 ft | 493 kts | 130° |
| 2026-04-26 21:19 | -33.93522 | -59.96034 | 22944 ft | 475 kts | 131° |
| 2026-04-26 21:19 | -33.95309 | -59.92754 | 22895 ft | 460 kts | 133° |
| 2026-04-26 21:19 | -33.97048 | -59.89590 | 22827 ft | 447 kts | 133° |
| 2026-04-26 21:20 | -33.98747 | -59.86511 | 22729 ft | 436 kts | 133° |
| 2026-04-26 21:20 | -34.00412 | -59.83498 | 22453 ft | 430 kts | 133° |
| 2026-04-26 21:20 | -34.02069 | -59.80502 | 22092 ft | 427 kts | 134° |
| 2026-04-26 21:20 | -34.03715 | -59.77541 | 21745 ft | 424 kts | 134° |
| 2026-04-26 21:21 | -34.05374 | -59.74617 | 21337 ft | 422 kts | 134° |
| 2026-04-26 21:21 | -34.07015 | -59.71689 | 20951 ft | 421 kts | 134° |
| 2026-04-26 21:21 | -34.08639 | -59.68765 | 20597 ft | 419 kts | 134° |
| 2026-04-26 21:21 | -34.10257 | -59.65837 | 20232 ft | 417 kts | 134° |
| 2026-04-26 21:22 | -34.11857 | -59.62935 | 19871 ft | 415 kts | 134° |
| 2026-04-26 21:22 | -34.13443 | -59.60050 | 19513 ft | 412 kts | 134° |
| 2026-04-26 21:22 | -34.15026 | -59.57170 | 19155 ft | 410 kts | 134° |
| 2026-04-26 21:23 | -34.18160 | -59.51463 | 18448 ft | 406 kts | 134° |
| 2026-04-26 21:23 | -34.19716 | -59.48628 | 18099 ft | 404 kts | 134° |
| 2026-04-26 21:23 | -34.21270 | -59.45801 | 17755 ft | 402 kts | 134° |
| 2026-04-26 21:23 | -34.22806 | -59.42986 | 17413 ft | 400 kts | 133° |
| 2026-04-26 21:24 | -34.24301 | -59.40157 | 17072 ft | 399 kts | 133° |
| 2026-04-26 21:24 | -34.25762 | -59.37372 | 16738 ft | 396 kts | 133° |
| 2026-04-26 21:24 | -34.26754 | -59.35481 | 16512 ft | 395 kts | 133° |
| 2026-04-26 21:24 | -34.28697 | -59.31777 | 16065 ft | 392 kts | 133° |
| 2026-04-26 21:25 | -34.30156 | -59.28995 | 15731 ft | 390 kts | 133° |
| 2026-04-26 21:25 | -34.31603 | -59.26234 | 15396 ft | 388 kts | 134° |
| 2026-04-26 21:25 | -34.32567 | -59.24397 | 14971 ft | 394 kts | 134° |
| 2026-04-26 21:25 | -34.34544 | -59.20621 | 14363 ft | 397 kts | 134° |
| 2026-04-26 21:26 | -34.36015 | -59.17812 | 14097 ft | 393 kts | 134° |
| 2026-04-26 21:26 | -34.36985 | -59.15960 | 13883 ft | 392 kts | 134° |
| 2026-04-26 21:26 | -34.38921 | -59.12260 | 13455 ft | 389 kts | 134° |
| 2026-04-26 21:26 | -34.39915 | -59.10402 | 13256 ft | 385 kts | 135° |
| 2026-04-26 21:27 | -34.41348 | -59.07725 | 12970 ft | 383 kts | 134° |
| 2026-04-26 21:27 | -34.42782 | -59.05008 | 12673 ft | 380 kts | 134° |
| 2026-04-26 21:27 | -34.44196 | -59.02308 | 12381 ft | 378 kts | 134° |
| 2026-04-26 21:27 | -34.45593 | -58.99633 | 12091 ft | 375 kts | 134° |
| 2026-04-26 21:28 | -34.46411 | -58.98061 | 11936 ft | 372 kts | 133° |
| 2026-04-26 21:28 | -34.47488 | -58.95992 | 11707 ft | 370 kts | 133° |
| 2026-04-26 21:28 | -34.48875 | -58.93322 | 11393 ft | 368 kts | 133° |
| 2026-04-26 21:28 | -34.49291 | -58.92522 | 11288 ft | 368 kts | 133° |